Terminal Aerodrome Forecast
Issued by NWS

Home | Current Version | Previous Version | Graphics & Text | Print | Product List | Glossary On
Versions: 1 2 3 4 5 6 7 8 9 10 11 12 13 14 15 16 17 18 19 20 21 22 23 24 25 26 27 28
193
FTUS43 KLOT 251723
TAFORD
TAF
KORD 251723Z 2518/2624 35011KT P6SM SCT025 OVC040
     FM252000 02010KT P6SM SCT040
     FM260200 VRB03KT P6SM FEW040 SCT250
     FM261300 10005KT P6SM BKN100
     FM262100 08012KT P6SM BKN035 OVC080 PROB30 2621/2624 4SM -SHRA
      OVC030=

USA.gov is the U.S. government's official web portal to all federal, state and local government web resources and services.